Time;durP1;ratioP1;P1;durP2;ratioP2;P2;SDS_P1;SDS_P2;PMS_P1;PMS_P2;Temp;Humidity;BMP_temperature;BMP_pressure;BME280_temperature;BME280_humidity;BME280_pressure;Samples;Min_cycle;Max_cycle;Signal;HPM_P1;HPM_P2
2022/08/24 00:00:43;;;;;;;2.12;1.92;;;18.00;99.90;;;;;;624677;230;26818;-67
2022/08/24 00:03:10;;;;;;;3.25;2.08;;;18.00;99.90;;;;;;624791;230;26620;-67
2022/08/24 00:05:37;;;;;;;1.80;1.70;;;18.00;99.90;;;;;;624713;230;26844;-67
2022/08/24 00:08:04;;;;;;;2.55;1.67;;;17.90;99.90;;;;;;624759;230;26607;-67
2022/08/24 00:10:31;;;;;;;3.55;1.80;;;17.90;99.90;;;;;;624670;230;26781;-67
2022/08/24 00:13:00;;;;;;;2.33;1.80;;;17.80;99.90;;;;;;624714;230;26563;-67
2022/08/24 00:15:28;;;;;;;3.37;2.08;;;17.80;99.90;;;;;;624667;230;26806;-67
2022/08/24 00:17:55;;;;;;;2.05;1.85;;;17.80;99.90;;;;;;624433;230;26885;-67
2022/08/24 00:20:23;;;;;;;2.45;1.80;;;17.80;99.90;;;;;;624350;230;26631;-67
2022/08/24 00:22:51;;;;;;;2.12;1.92;;;17.70;99.90;;;;;;624422;230;26588;-67
2022/08/24 00:25:19;;;;;;;3.15;2.30;;;17.70;99.90;;;;;;624469;230;26595;-67
2022/08/24 00:27:47;;;;;;;2.08;1.77;;;17.70;99.90;;;;;;624439;230;26613;-67
2022/08/24 00:30:15;;;;;;;1.90;1.65;;;17.70;99.90;;;;;;624467;230;26625;-67
2022/08/24 00:32:43;;;;;;;1.65;1.55;;;17.70;99.90;;;;;;624317;230;26603;-67
2022/08/24 00:35:11;;;;;;;4.30;2.05;;;17.60;99.90;;;;;;624459;230;26607;-67
2022/08/24 00:37:38;;;;;;;2.08;1.77;;;17.60;99.90;;;;;;624805;230;26618;-67
2022/08/24 00:40:05;;;;;;;3.60;1.77;;;17.60;99.90;;;;;;624790;230;26596;-67
2022/08/24 00:42:33;;;;;;;2.28;1.80;;;17.60;99.90;;;;;;624785;230;26602;-67
2022/08/24 00:45:00;;;;;;;2.72;1.90;;;17.70;99.90;;;;;;624854;230;26798;-67
2022/08/24 00:47:27;;;;;;;3.10;1.70;;;17.70;99.90;;;;;;624840;229;26564;-67
2022/08/24 00:49:55;;;;;;;2.37;1.87;;;17.60;99.90;;;;;;624717;230;26807;-67
2022/08/24 00:52:24;;;;;;;2.00;1.90;;;17.60;99.90;;;;;;625243;228;26579;-67
2022/08/24 00:54:51;;;;;;;2.12;1.92;;;17.60;99.90;;;;;;626183;230;26541;-67
2022/08/24 00:57:19;;;;;;;2.58;1.87;;;17.50;99.90;;;;;;625725;230;26549;-67
2022/08/24 00:59:46;;;;;;;2.95;1.67;;;17.50;99.90;;;;;;625271;230;26633;-67
2022/08/24 01:02:14;;;;;;;2.83;2.00;;;17.50;99.90;;;;;;625019;230;26815;-67
2022/08/24 01:04:53;;;;;;;2.92;1.87;;;17.60;99.90;;;;;;624849;230;26570;-67
2022/08/24 01:07:21;;;;;;;2.40;1.65;;;17.60;99.90;;;;;;624898;230;26555;-67
2022/08/24 01:09:48;;;;;;;2.40;1.77;;;17.50;99.90;;;;;;624824;230;26567;-67
2022/08/24 01:12:16;;;;;;;3.08;1.80;;;17.50;99.90;;;;;;624745;230;26748;-67
2022/08/24 01:14:42;;;;;;;2.65;1.73;;;17.50;99.90;;;;;;624633;230;26640;-67
2022/08/24 01:19:42;;;;;;;1.70;1.60;;;17.50;99.90;;;;;;624647;230;26822;-67
2022/08/24 01:22:19;;;;;;;1.95;1.70;;;17.50;99.90;;;;;;624629;230;26559;-67
2022/08/24 01:24:45;;;;;;;3.37;1.80;;;17.50;99.90;;;;;;624156;230;26774;-67
2022/08/24 01:27:13;;;;;;;3.50;2.08;;;17.50;99.90;;;;;;624823;229;26621;-67
2022/08/24 01:29:40;;;;;;;2.60;1.65;;;17.40;99.90;;;;;;624476;230;26826;-67
2022/08/24 01:32:07;;;;;;;3.05;1.77;;;17.50;99.90;;;;;;624519;230;26604;-67
2022/08/24 01:34:34;;;;;;;3.75;1.62;;;17.50;99.90;;;;;;624310;230;26575;-67
2022/08/24 01:37:02;;;;;;;2.47;1.73;;;17.40;99.90;;;;;;624464;230;26597;-67
2022/08/24 01:39:31;;;;;;;2.80;1.75;;;17.40;99.90;;;;;;624426;230;26610;-67
2022/08/24 01:41:58;;;;;;;2.47;1.60;;;17.40;99.90;;;;;;624432;230;26644;-67
2022/08/24 01:44:26;;;;;;;2.12;1.62;;;17.40;99.90;;;;;;624484;230;26624;-67
2022/08/24 01:46:54;;;;;;;1.75;1.65;;;17.40;99.90;;;;;;624394;230;26606;-67
2022/08/24 01:49:21;;;;;;;1.70;1.58;;;17.40;99.90;;;;;;624451;230;26612;-67
2022/08/24 01:51:48;;;;;;;2.97;1.80;;;17.40;99.90;;;;;;624414;230;26624;-68
2022/08/24 01:54:15;;;;;;;4.62;2.00;;;17.40;99.90;;;;;;624493;230;26824;-67
2022/08/24 01:56:42;;;;;;;2.12;2.00;;;17.40;99.90;;;;;;624492;230;26628;-67
2022/08/24 01:59:11;;;;;;;2.47;2.05;;;17.50;99.90;;;;;;624470;230;26990;-67
2022/08/24 02:01:37;;;;;;;2.45;1.90;;;17.60;99.90;;;;;;624309;230;26616;-67
2022/08/24 02:04:04;;;;;;;2.70;1.70;;;17.60;99.90;;;;;;625571;228;26823;-66
2022/08/24 02:06:32;;;;;;;2.53;1.60;;;17.80;99.90;;;;;;626226;230;26528;-66
2022/08/24 02:08:58;;;;;;;3.62;1.50;;;17.90;99.90;;;;;;625880;230;26807;-66
2022/08/24 02:11:26;;;;;;;3.05;1.58;;;18.00;99.90;;;;;;625287;230;26648;-67
2022/08/24 02:13:53;;;;;;;1.98;1.75;;;18.10;99.90;;;;;;625159;230;26918;-67
2022/08/24 02:16:21;;;;;;;3.83;1.73;;;18.30;99.90;;;;;;625071;230;26534;-67
2022/08/24 02:18:49;;;;;;;2.87;2.05;;;18.30;99.90;;;;;;625020;230;26544;-67
2022/08/24 02:21:17;;;;;;;3.60;1.73;;;18.40;99.90;;;;;;625022;229;26596;-67
2022/08/24 02:23:45;;;;;;;2.05;1.85;;;18.50;99.90;;;;;;624788;229;26632;-67
2022/08/24 02:26:12;;;;;;;3.30;1.90;;;18.40;99.90;;;;;;624769;230;26552;-67
2022/08/24 02:28:39;;;;;;;2.78;2.10;;;18.50;99.90;;;;;;624751;230;26628;-67
2022/08/24 02:31:07;;;;;;;2.83;1.95;;;18.50;99.90;;;;;;624710;230;26875;-67
2022/08/24 02:33:37;;;;;;;3.97;1.70;;;18.40;99.90;;;;;;624759;230;26644;-67
2022/08/24 02:36:04;;;;;;;2.78;2.10;;;18.40;99.90;;;;;;624667;230;26665;-67
2022/08/24 02:38:32;;;;;;;3.35;2.33;;;18.30;99.90;;;;;;624787;230;26550;-67
2022/08/24 02:41:00;;;;;;;2.17;1.90;;;18.40;99.90;;;;;;624559;230;26658;-67
2022/08/24 02:43:27;;;;;;;2.17;2.03;;;18.30;99.90;;;;;;624457;230;26568;-67
2022/08/24 02:45:54;;;;;;;2.92;2.45;;;18.30;99.90;;;;;;624469;230;26597;-67
2022/08/24 02:48:22;;;;;;;3.37;2.37;;;18.20;99.90;;;;;;624358;230;26655;-66
2022/08/24 02:50:50;;;;;;;3.55;2.58;;;18.20;99.90;;;;;;624440;230;26636;-66
2022/08/24 02:53:17;;;;;;;2.72;2.40;;;18.20;99.90;;;;;;624282;230;26604;-66
2022/08/24 02:55:44;;;;;;;4.25;3.30;;;18.10;99.90;;;;;;624371;229;27280;-66
2022/08/24 02:58:11;;;;;;;2.95;2.45;;;18.00;99.90;;;;;;624461;230;26584;-66
2022/08/24 03:00:38;;;;;;;3.37;2.85;;;18.00;99.90;;;;;;624427;230;26979;-66
2022/08/24 03:03:06;;;;;;;3.87;3.20;;;17.90;99.90;;;;;;624165;230;26628;-66
2022/08/24 03:05:33;;;;;;;5.97;3.92;;;17.90;99.90;;;;;;624470;230;26838;-66
2022/08/24 03:08:00;;;;;;;4.93;3.50;;;17.80;99.90;;;;;;624527;230;26561;-67
2022/08/24 03:10:27;;;;;;;4.62;4.00;;;17.70;99.90;;;;;;624353;230;26864;-67
2022/08/24 03:12:54;;;;;;;4.05;3.58;;;17.70;99.90;;;;;;624442;229;26657;-67
2022/08/24 03:15:22;;;;;;;4.70;3.75;;;17.70;99.90;;;;;;624927;228;26876;-66
2022/08/24 03:17:49;;;;;;;5.87;4.05;;;17.60;99.90;;;;;;625995;229;27245;-66
2022/08/24 03:20:16;;;;;;;5.57;4.22;;;17.60;99.90;;;;;;625571;230;26579;-66
2022/08/24 03:22:43;;;;;;;4.65;4.18;;;17.60;99.90;;;;;;625679;230;26597;-66
2022/08/24 03:25:11;;;;;;;4.87;4.40;;;17.60;99.90;;;;;;625404;230;27189;-64
2022/08/24 03:27:38;;;;;;;6.70;4.32;;;17.60;99.90;;;;;;625258;230;26547;-65
2022/08/24 03:30:06;;;;;;;5.47;4.30;;;17.60;99.90;;;;;;625022;230;26851;-65
2022/08/24 03:32:33;;;;;;;4.72;4.22;;;17.60;99.90;;;;;;625049;230;26558;-65
2022/08/24 03:35:01;;;;;;;5.25;4.35;;;17.50;99.90;;;;;;624773;230;26813;-65
2022/08/24 03:37:27;;;;;;;5.53;4.45;;;17.50;99.90;;;;;;624602;230;26620;-65
2022/08/24 03:39:55;;;;;;;5.05;4.50;;;17.50;99.90;;;;;;624701;229;27213;-65
2022/08/24 03:42:22;;;;;;;5.45;4.78;;;17.50;99.90;;;;;;624758;229;26586;-65
2022/08/24 03:44:49;;;;;;;5.32;4.28;;;17.50;99.90;;;;;;624737;230;26850;-65
2022/08/24 03:47:19;;;;;;;4.87;4.40;;;17.50;99.90;;;;;;624800;230;26603;-65
2022/08/24 03:49:45;;;;;;;6.78;5.00;;;17.50;99.90;;;;;;624636;230;26538;-65
2022/08/24 03:52:13;;;;;;;4.75;4.30;;;17.40;99.90;;;;;;624446;230;26587;-65
2022/08/24 03:54:40;;;;;;;5.40;4.70;;;17.40;99.90;;;;;;624454;230;26610;-65
2022/08/24 03:57:07;;;;;;;5.03;4.62;;;17.40;99.90;;;;;;624386;230;26631;-65
2022/08/24 03:59:35;;;;;;;5.07;4.68;;;17.40;99.90;;;;;;624385;229;26573;-65
2022/08/24 04:02:02;;;;;;;6.65;4.70;;;17.30;99.90;;;;;;624435;230;26840;-65
2022/08/24 04:04:30;;;;;;;4.97;4.47;;;17.40;99.90;;;;;;624367;230;26614;-64
2022/08/24 04:06:58;;;;;;;7.75;4.95;;;17.30;99.90;;;;;;624425;230;26644;-65
2022/08/24 04:09:25;;;;;;;5.93;4.95;;;17.30;99.90;;;;;;624444;230;26602;-65
2022/08/24 04:11:53;;;;;;;4.85;4.37;;;17.20;99.90;;;;;;624343;230;26630;-65
2022/08/24 04:14:20;;;;;;;5.62;4.45;;;17.30;99.90;;;;;;624461;230;26598;-65
2022/08/24 04:16:47;;;;;;;5.43;4.78;;;17.20;99.90;;;;;;624467;230;26843;-64
2022/08/24 04:19:14;;;;;;;5.22;4.70;;;17.20;99.90;;;;;;624457;230;26628;-65
2022/08/24 04:21:43;;;;;;;5.18;4.45;;;17.20;99.90;;;;;;624422;230;26828;-64
2022/08/24 04:24:09;;;;;;;4.70;4.30;;;17.20;99.90;;;;;;624418;230;26605;-64
2022/08/24 04:26:36;;;;;;;5.50;4.22;;;17.20;99.90;;;;;;624640;228;27381;-64
2022/08/24 04:29:03;;;;;;;7.07;4.37;;;17.20;99.90;;;;;;626107;229;26609;-64
2022/08/24 04:31:30;;;;;;;4.65;4.25;;;17.20;99.90;;;;;;625538;230;26828;-64
2022/08/24 04:33:57;;;;;;;4.25;3.90;;;17.20;99.90;;;;;;625364;230;26599;-64
2022/08/24 04:36:25;;;;;;;4.70;4.28;;;17.20;99.90;;;;;;625177;230;26857;-64
2022/08/24 04:38:52;;;;;;;5.65;3.90;;;17.30;99.90;;;;;;625091;230;26559;-64
2022/08/24 04:41:19;;;;;;;4.55;3.83;;;17.30;99.90;;;;;;625048;230;26596;-65
2022/08/24 04:43:48;;;;;;;5.97;4.40;;;17.40;99.90;;;;;;625036;230;26555;-65
2022/08/24 04:46:15;;;;;;;4.75;4.15;;;17.40;99.90;;;;;;624760;230;26596;-65
2022/08/24 04:48:43;;;;;;;4.93;4.40;;;17.40;99.90;;;;;;624724;230;26624;-65
2022/08/24 04:51:11;;;;;;;4.30;3.60;;;17.50;99.90;;;;;;624596;230;26649;-65
2022/08/24 04:53:38;;;;;;;4.28;3.85;;;17.50;99.90;;;;;;624690;230;26611;-65
2022/08/24 04:56:09;;;;;;;3.78;3.47;;;17.50;99.90;;;;;;624800;229;26558;-65
2022/08/24 04:58:36;;;;;;;5.20;4.22;;;17.50;99.90;;;;;;624795;230;26619;-65
2022/08/24 05:01:10;;;;;;;3.90;3.62;;;17.60;99.90;;;;;;624718;230;26619;-65
2022/08/24 05:03:38;;;;;;;4.82;3.65;;;17.60;99.90;;;;;;624444;230;26694;-64
2022/08/24 05:06:06;;;;;;;6.60;4.00;;;17.60;99.90;;;;;;624442;230;26604;-64
2022/08/24 05:08:33;;;;;;;6.72;4.18;;;17.60;99.90;;;;;;624391;230;26614;-65
2022/08/24 05:11:01;;;;;;;3.70;3.40;;;17.70;99.90;;;;;;624241;230;26872;-65
2022/08/24 05:13:28;;;;;;;4.00;3.70;;;17.70;99.90;;;;;;624188;226;26637;-65
2022/08/24 05:15:56;;;;;;;3.67;3.37;;;17.80;99.90;;;;;;624365;230;26864;-65
2022/08/24 05:18:23;;;;;;;3.55;3.30;;;17.80;99.90;;;;;;624433;230;26845;-65
2022/08/24 05:20:50;;;;;;;4.00;3.60;;;17.80;99.90;;;;;;624438;230;26632;-65
2022/08/24 05:23:18;;;;;;;5.80;3.65;;;17.90;99.90;;;;;;624516;230;26821;-65
2022/08/24 05:25:44;;;;;;;3.62;3.33;;;17.90;99.90;;;;;;624367;230;26612;-65
2022/08/24 05:28:12;;;;;;;3.53;3.22;;;17.90;99.90;;;;;;624410;230;26810;-63
2022/08/24 05:30:40;;;;;;;4.25;3.22;;;18.00;99.90;;;;;;624394;229;26631;-64
2022/08/24 05:33:08;;;;;;;3.62;3.33;;;18.10;99.90;;;;;;624477;230;26609;-65
2022/08/24 05:35:37;;;;;;;4.60;4.10;;;18.10;99.90;;;;;;624338;230;26595;-65
2022/08/24 05:38:05;;;;;;;3.62;3.17;;;18.10;99.90;;;;;;624326;228;26627;-65
2022/08/24 05:40:32;;;;;;;3.35;3.05;;;18.10;99.90;;;;;;626024;229;26647;-65
2022/08/24 05:43:00;;;;;;;4.68;3.37;;;18.10;99.90;;;;;;625596;230;26801;-64
2022/08/24 05:45:27;;;;;;;5.72;3.72;;;18.10;99.90;;;;;;625349;230;26614;-65
2022/08/24 05:47:54;;;;;;;4.70;3.65;;;18.10;99.90;;;;;;625505;230;26820;-65
2022/08/24 05:50:21;;;;;;;5.78;3.72;;;18.00;99.90;;;;;;625126;229;26544;-65
2022/08/24 05:52:48;;;;;;;3.12;2.92;;;18.00;99.90;;;;;;625002;230;26809;-65
2022/08/24 05:55:16;;;;;;;3.83;3.47;;;18.00;99.90;;;;;;625045;230;26552;-65
2022/08/24 05:57:44;;;;;;;3.78;3.37;;;18.10;99.90;;;;;;624873;230;26545;-65
2022/08/24 06:00:13;;;;;;;3.15;2.92;;;18.20;99.90;;;;;;624576;230;26863;-65
2022/08/24 06:02:40;;;;;;;3.10;2.85;;;18.20;99.90;;;;;;624662;230;26635;-65
2022/08/24 06:05:07;;;;;;;2.90;2.70;;;18.20;99.90;;;;;;624752;230;26812;-65
2022/08/24 06:07:35;;;;;;;3.55;3.30;;;18.30;99.90;;;;;;624767;230;26632;-65
2022/08/24 06:10:04;;;;;;;3.53;3.22;;;18.50;99.90;;;;;;624602;230;26644;-65
2022/08/24 06:12:32;;;;;;;3.17;2.97;;;18.50;99.90;;;;;;624697;230;26624;-65
2022/08/24 06:14:58;;;;;;;4.57;2.90;;;18.60;99.90;;;;;;624574;230;26815;-65
2022/08/24 06:17:25;;;;;;;3.55;3.20;;;18.70;99.90;;;;;;624409;230;26597;-65
2022/08/24 06:19:52;;;;;;;4.28;3.42;;;18.70;99.90;;;;;;624246;230;26865;-65
2022/08/24 06:22:20;;;;;;;3.12;2.90;;;18.90;99.90;;;;;;624438;230;26635;-65
2022/08/24 06:27:21;;;;;;;3.05;2.85;;;19.00;99.90;;;;;;624453;230;26624;-65
2022/08/24 06:29:49;;;;;;;4.60;3.47;;;19.10;99.90;;;;;;624363;230;26620;-65
2022/08/24 06:32:16;;;;;;;3.87;3.42;;;19.10;99.90;;;;;;624772;230;26819;-65
2022/08/24 06:34:43;;;;;;;3.28;3.08;;;19.30;99.90;;;;;;624890;230;26566;-67
2022/08/24 06:37:10;;;;;;;3.65;3.35;;;19.40;99.90;;;;;;623651;230;26875;-66
2022/08/24 06:39:37;;;;;;;4.30;3.08;;;19.70;99.90;;;;;;622114;230;26580;-66
2022/08/24 06:42:05;;;;;;;3.50;3.20;;;20.00;99.90;;;;;;619019;232;26817;-64
2022/08/24 06:44:32;;;;;;;6.57;2.97;;;19.90;99.90;;;;;;623727;230;26565;-64
2022/08/24 06:46:59;;;;;;;4.30;3.20;;;19.80;99.90;;;;;;624484;230;26825;-64
2022/08/24 06:49:26;;;;;;;6.70;3.30;;;19.90;99.90;;;;;;624460;230;26614;-64
2022/08/24 06:51:53;;;;;;;7.95;3.42;;;20.00;99.90;;;;;;626154;228;27158;-64
2022/08/24 06:54:21;;;;;;;4.60;3.22;;;20.30;99.90;;;;;;625621;230;26534;-64
2022/08/24 06:56:49;;;;;;;4.82;3.75;;;20.60;99.90;;;;;;624576;230;26582;-64
2022/08/24 06:59:17;;;;;;;6.20;3.53;;;20.70;99.90;;;;;;624303;230;26569;-63
2022/08/24 07:01:45;;;;;;;6.87;4.00;;;20.80;99.90;;;;;;623999;230;26592;-63
2022/08/24 07:04:13;;;;;;;6.22;4.10;;;20.80;99.90;;;;;;624000;230;26559;-64
2022/08/24 07:06:40;;;;;;;4.40;3.87;;;20.80;99.90;;;;;;622556;230;26597;-62
2022/08/24 07:09:08;;;;;;;5.55;4.80;;;20.80;99.90;;;;;;619063;232;26566;-62
2022/08/24 07:11:35;;;;;;;5.87;4.57;;;20.80;99.90;;;;;;618796;232;26911;-64
2022/08/24 07:14:02;;;;;;;7.05;5.68;;;20.70;99.90;;;;;;618921;227;26554;-64
2022/08/24 07:16:30;;;;;;;6.53;4.57;;;21.10;99.90;;;;;;618892;232;26774;-64
2022/08/24 07:18:57;;;;;;;7.40;5.22;;;21.10;99.90;;;;;;618986;232;26799;-64
2022/08/24 07:21:24;;;;;;;9.52;5.65;;;21.00;99.90;;;;;;618893;232;26641;-64
2022/08/24 07:23:54;;;;;;;6.30;5.50;;;21.10;99.90;;;;;;618979;231;26924;-64
2022/08/24 07:26:22;;;;;;;6.40;5.62;;;21.30;99.90;;;;;;618746;232;26808;-64
2022/08/24 07:28:49;;;;;;;5.62;4.95;;;21.20;99.90;;;;;;620197;230;26600;-64
2022/08/24 07:31:17;;;;;;;4.85;4.45;;;21.40;99.90;;;;;;623689;230;26894;-64
2022/08/24 07:33:45;;;;;;;5.85;5.07;;;21.50;99.90;;;;;;624424;230;26603;-64
2022/08/24 07:36:13;;;;;;;6.45;5.28;;;21.50;99.90;;;;;;624473;230;26605;-64
2022/08/24 07:38:39;;;;;;;6.60;5.32;;;21.70;99.90;;;;;;624720;230;26599;-64
2022/08/24 07:41:07;;;;;;;7.47;5.50;;;21.90;99.90;;;;;;624811;230;26598;-65
2022/08/24 07:43:34;;;;;;;13.43;5.97;;;21.90;99.90;;;;;;624833;230;26578;-64
2022/08/24 07:46:02;;;;;;;6.30;5.50;;;21.70;99.90;;;;;;624829;230;26570;-64
2022/08/24 07:48:30;;;;;;;9.57;6.35;;;21.80;99.90;;;;;;624562;230;26589;-64
2022/08/24 07:50:58;;;;;;;7.15;5.68;;;21.80;99.90;;;;;;624430;230;26630;-65
2022/08/24 07:53:25;;;;;;;7.75;6.55;;;22.00;99.90;;;;;;624123;230;26615;-65
2022/08/24 07:55:54;;;;;;;6.78;5.72;;;22.00;99.90;;;;;;624194;230;26606;-65
2022/08/24 07:58:20;;;;;;;9.32;6.20;;;22.00;99.90;;;;;;618789;230;26841;-65
2022/08/24 08:00:48;;;;;;;8.57;6.30;;;22.10;99.90;;;;;;619540;231;26627;-65
2022/08/24 08:03:17;;;;;;;6.47;5.78;;;21.90;99.90;;;;;;624844;228;26559;-65
2022/08/24 08:05:44;;;;;;;7.35;6.07;;;21.90;99.90;;;;;;624676;230;26603;-65
2022/08/24 08:08:11;;;;;;;8.40;6.60;;;22.00;99.90;;;;;;621072;230;27237;-64
2022/08/24 08:10:39;;;;;;;7.05;5.47;;;21.90;99.90;;;;;;623695;230;26651;-64
2022/08/24 08:13:05;;;;;;;8.68;6.55;;;22.30;99.90;;;;;;625007;230;26919;-64
2022/08/24 08:15:33;;;;;;;9.43;7.18;;;22.40;99.90;;;;;;625035;230;26547;-64
2022/08/24 08:18:01;;;;;;;8.32;6.20;;;22.30;99.90;;;;;;624435;230;26544;-64
2022/08/24 08:20:29;;;;;;;8.80;6.25;;;22.10;99.90;;;;;;622261;230;26596;-64
2022/08/24 08:25:30;;;;;;;7.25;6.35;;;21.80;99.90;;;;;;623050;230;26630;-65
2022/08/24 08:27:57;;;;;;;6.57;5.78;;;21.90;99.90;;;;;;619789;230;26832;-65
2022/08/24 08:30:25;;;;;;;5.75;5.00;;;22.30;99.90;;;;;;618910;231;26577;-66
2022/08/24 08:32:53;;;;;;;8.95;6.68;;;22.30;99.90;;;;;;622749;230;26607;-65
2022/08/24 08:35:21;;;;;;;6.47;5.70;;;22.70;99.90;;;;;;624718;230;26623;-65
2022/08/24 08:37:49;;;;;;;6.25;5.40;;;23.10;99.90;;;;;;624507;230;26608;-66
2022/08/24 08:40:18;;;;;;;9.52;6.93;;;23.10;99.90;;;;;;624405;230;27068;-65
2022/08/24 08:42:52;;;;;;;9.25;6.75;;;23.00;99.90;;;;;;624275;230;26607;-65
2022/08/24 08:45:25;;;;;;;6.95;6.10;;;23.00;99.90;;;;;;625591;230;26581;-65
2022/08/24 08:48:04;;;;;;;5.70;5.10;;;22.90;99.90;;;;;;626199;230;26580;-65
2022/08/24 08:50:52;;;;;;;8.18;7.12;;;23.70;99.90;;;;;;626444;230;26698;-65
2022/08/24 08:53:38;;;;;;;11.32;7.12;;;23.70;99.90;;;;;;623573;230;26598;-66
2022/08/24 08:56:06;;;;;;;10.35;7.28;;;23.60;99.90;;;;;;608017;232;26581;-65
2022/08/24 08:59:00;;;;;;;10.63;7.03;;;23.50;99.90;;;;;;618672;227;26570;-64
2022/08/24 09:01:25;;;;;;;42.50;13.02;;;23.30;99.90;;;;;;609235;229;26620;-64
2022/08/24 09:04:12;;;;;;;7.32;5.05;;;23.90;99.90;;;;;;626807;229;26603;-64
2022/08/24 09:06:54;;;;;;;106.20;26.77;;;24.20;99.90;;;;;;615196;229;26603;-67
2022/08/24 09:09:28;;;;;;;23.85;11.68;;;24.30;99.90;;;;;;622221;229;26615;-65
2022/08/24 09:11:58;;;;;;;22.35;9.80;;;24.30;99.90;;;;;;622800;230;26901;-65
2022/08/24 09:14:46;;;;;;;68.25;20.05;;;24.80;99.90;;;;;;625020;228;26618;-64
2022/08/24 09:17:16;;;;;;;62.92;18.60;;;24.80;99.90;;;;;;623979;230;26609;-64
2022/08/24 09:19:49;;;;;;;51.95;17.75;;;25.20;98.90;;;;;;623977;230;26654;-64
2022/08/24 09:22:16;;;;;;;54.05;17.10;;;25.10;98.10;;;;;;623135;230;26607;-64
2022/08/24 09:24:50;;;;;;;54.85;17.58;;;25.20;98.10;;;;;;624499;230;26568;-68
2022/08/24 09:27:23;;;;;;;45.35;16.40;;;25.20;97.70;;;;;;624378;229;26551;-68
2022/08/24 09:30:17;;;;;;;42.45;15.38;;;25.80;96.80;;;;;;624540;230;26559;-68
2022/08/24 09:33:05;;;;;;;22.08;10.90;;;25.70;96.70;;;;;;624897;230;26836;-68
2022/08/24 09:35:39;;;;;;;21.15;10.15;;;26.00;95.60;;;;;;623493;230;26578;-68
2022/08/24 09:38:15;;;;;;;28.83;12.15;;;26.00;95.60;;;;;;625130;230;26746;-67
2022/08/24 09:40:53;;;;;;;20.62;10.20;;;26.10;95.40;;;;;;624885;230;26564;-68
2022/08/24 09:43:31;;;;;;;16.20;9.70;;;26.00;95.40;;;;;;624528;230;26561;-68
2022/08/24 09:46:18;;;;;;;17.17;9.40;;;26.10;95.00;;;;;;623111;230;26577;-68
2022/08/24 09:49:08;;;;;;;16.15;9.05;;;26.00;95.00;;;;;;623891;230;26665;-69
2022/08/24 09:51:36;;;;;;;15.50;9.15;;;26.00;95.00;;;;;;624761;230;26848;-68
2022/08/24 09:54:27;;;;;;;13.02;8.68;;;26.10;95.30;;;;;;623610;230;26629;-68
2022/08/24 09:56:56;;;;;;;21.42;10.30;;;26.00;95.20;;;;;;620112;230;26640;-67
2022/08/24 09:59:47;;;;;;;13.30;8.00;;;26.00;94.90;;;;;;622966;230;26612;-68
2022/08/24 10:02:24;;;;;;;13.43;7.47;;;26.00;94.70;;;;;;608678;232;26702;-68
2022/08/24 10:05:11;;;;;;;8.90;7.25;;;25.70;95.50;;;;;;618692;231;26821;-69
2022/08/24 10:07:54;;;;;;;8.23;6.53;;;25.60;95.30;;;;;;612976;231;26649;-68
2022/08/24 10:10:32;;;;;;;12.32;8.43;;;25.50;95.20;;;;;;623195;231;26816;-68
2022/08/24 10:13:14;;;;;;;12.95;8.88;;;25.40;95.80;;;;;;622763;230;26552;-68
2022/08/24 10:15:47;;;;;;;15.40;8.50;;;25.40;95.80;;;;;;613925;227;26633;-68
2022/08/24 10:18:16;;;;;;;9.98;7.53;;;25.30;96.20;;;;;;622359;231;26567;-68
2022/08/24 10:20:49;;;;;;;19.33;8.75;;;25.20;96.40;;;;;;622241;230;26833;-68
2022/08/24 10:23:32;;;;;;;16.15;9.02;;;25.20;96.20;;;;;;622852;230;26792;-68
2022/08/24 10:26:14;;;;;;;8.98;7.10;;;25.30;96.40;;;;;;624570;228;26607;-68
2022/08/24 10:28:55;;;;;;;15.82;9.15;;;25.50;96.40;;;;;;620571;230;26640;-67
2022/08/24 10:31:25;;;;;;;13.32;9.32;;;25.70;95.70;;;;;;623847;230;26803;-67
2022/08/24 10:34:03;;;;;;;13.07;9.30;;;25.70;95.60;;;;;;623567;230;26777;-68
2022/08/24 10:36:41;;;;;;;13.35;9.07;;;25.60;95.40;;;;;;623405;230;26633;-68
2022/08/24 10:42:07;;;;;;;10.10;8.98;;;25.10;95.90;;;;;;623896;230;26602;-67
2022/08/24 10:44:55;;;;;;;10.30;8.57;;;25.00;95.90;;;;;;621818;231;26562;-67
2022/08/24 10:47:22;;;;;;;13.13;8.93;;;25.00;96.30;;;;;;619630;231;26812;-67
2022/08/24 10:49:55;;;;;;;12.07;8.10;;;25.00;96.30;;;;;;623708;231;26560;-67
2022/08/24 10:52:23;;;;;;;12.15;8.70;;;24.70;96.20;;;;;;623531;230;26524;-67
2022/08/24 10:54:50;;;;;;;9.63;7.97;;;24.50;96.90;;;;;;621719;230;26527;-67
2022/08/24 10:57:35;;;;;;;10.73;8.20;;;24.40;96.90;;;;;;623786;231;26563;-68
2022/08/24 11:00:10;;;;;;;8.90;7.37;;;24.60;96.80;;;;;;623416;230;26555;-68
2022/08/24 11:02:35;;;;;;;11.25;8.02;;;24.80;96.60;;;;;;623392;230;26578;-68
2022/08/24 11:05:05;;;;;;;8.60;6.97;;;25.10;96.20;;;;;;623477;230;26600;-68
2022/08/24 11:07:32;;;;;;;11.25;7.87;;;25.30;95.20;;;;;;623542;231;26557;-68
2022/08/24 11:10:00;;;;;;;8.63;6.45;;;25.60;95.10;;;;;;623454;231;27267;-69
2022/08/24 11:12:33;;;;;;;6.78;6.18;;;25.90;94.90;;;;;;623410;230;26616;-67
2022/08/24 11:15:01;;;;;;;11.23;7.87;;;25.80;94.80;;;;;;623455;231;26552;-67
2022/08/24 11:17:29;;;;;;;10.15;7.80;;;25.60;94.70;;;;;;623334;230;26822;-68
2022/08/24 11:19:58;;;;;;;7.32;6.55;;;25.40;95.10;;;;;;623331;230;26555;-68
2022/08/24 11:22:29;;;;;;;8.13;6.65;;;25.40;95.30;;;;;;623306;231;26814;-68
2022/08/24 11:24:58;;;;;;;8.30;6.82;;;25.70;95.10;;;;;;623285;230;26577;-67
2022/08/24 11:27:25;;;;;;;7.32;6.62;;;26.00;94.20;;;;;;623639;230;26518;-67
2022/08/24 11:29:53;;;;;;;9.52;6.93;;;25.90;94.40;;;;;;623355;230;26778;-68
2022/08/24 11:32:29;;;;;;;7.87;6.07;;;25.90;94.50;;;;;;623486;230;26536;-68
2022/08/24 11:35:18;;;;;;;7.28;6.37;;;25.90;94.30;;;;;;623747;230;26780;-67
2022/08/24 11:37:45;;;;;;;7.75;6.85;;;25.90;94.30;;;;;;625064;228;26575;-67
2022/08/24 11:40:13;;;;;;;9.32;6.72;;;25.70;94.60;;;;;;625060;230;26638;-67
2022/08/24 11:42:41;;;;;;;7.68;6.45;;;25.70;94.60;;;;;;624757;229;26569;-67
2022/08/24 11:45:12;;;;;;;7.28;6.57;;;25.60;94.40;;;;;;623895;230;26540;-67
2022/08/24 11:47:58;;;;;;;9.18;6.80;;;25.50;94.20;;;;;;623931;230;26593;-67
2022/08/24 11:50:40;;;;;;;9.55;6.25;;;25.50;94.50;;;;;;615041;230;26635;-67
2022/08/24 11:53:08;;;;;;;8.85;7.35;;;25.50;94.50;;;;;;624120;230;26794;-67
2022/08/24 11:55:36;;;;;;;8.13;7.28;;;25.60;94.00;;;;;;623382;227;26532;-67
2022/08/24 11:58:06;;;;;;;8.15;6.50;;;25.70;93.70;;;;;;623455;230;26552;-67
2022/08/24 12:00:40;;;;;;;9.82;6.90;;;26.00;93.20;;;;;;623055;231;26591;-68
2022/08/24 12:03:23;;;;;;;7.62;6.82;;;26.80;92.10;;;;;;623801;229;26560;-67
2022/08/24 12:06:00;;;;;;;8.43;6.87;;;26.80;92.10;;;;;;623136;230;26567;-68
2022/08/24 12:08:45;;;;;;;7.43;6.72;;;27.30;91.30;;;;;;623345;230;26571;-68
2022/08/24 12:11:32;;;;;;;10.10;7.55;;;27.30;91.20;;;;;;623342;230;26544;-67
2022/08/24 12:14:05;;;;;;;10.68;6.87;;;27.10;90.90;;;;;;622239;231;26560;-68
2022/08/24 12:16:34;;;;;;;9.07;6.55;;;26.90;90.80;;;;;;623023;231;26821;-66
2022/08/24 12:19:02;;;;;;;6.82;6.00;;;26.90;90.70;;;;;;623179;230;26528;-67
2022/08/24 12:21:31;;;;;;;7.25;5.55;;;26.70;90.70;;;;;;622956;231;26589;-67
2022/08/24 12:24:04;;;;;;;7.28;6.50;;;26.40;90.80;;;;;;623382;231;26799;-67
2022/08/24 12:26:32;;;;;;;8.70;5.87;;;26.30;91.30;;;;;;623287;230;26584;-67
2022/08/24 12:29:14;;;;;;;7.80;6.28;;;26.20;91.20;;;;;;623404;230;26580;-66
2022/08/24 12:31:43;;;;;;;7.68;6.18;;;26.80;90.50;;;;;;619918;231;26600;-67
2022/08/24 12:34:10;;;;;;;11.60;6.55;;;26.70;90.50;;;;;;623636;231;26768;-67
2022/08/24 12:37:00;;;;;;;14.50;6.32;;;27.30;89.70;;;;;;623438;230;26521;-67
2022/08/24 12:39:28;;;;;;;10.77;6.37;;;28.70;85.40;;;;;;622710;231;26532;-67
2022/08/24 12:42:03;;;;;;;8.00;5.87;;;28.70;85.30;;;;;;623162;231;26638;-67
2022/08/24 12:44:55;;;;;;;12.15;7.35;;;29.50;82.80;;;;;;623835;230;26779;-66
2022/08/24 12:47:38;;;;;;;7.35;5.62;;;29.90;80.40;;;;;;622069;231;26528;-66
2022/08/24 12:50:07;;;;;;;8.27;6.03;;;30.00;78.80;;;;;;621209;227;26579;-66
2022/08/24 12:52:53;;;;;;;9.13;6.53;;;29.80;77.90;;;;;;625178;229;26631;-68
2022/08/24 12:55:23;;;;;;;12.37;6.53;;;29.30;77.60;;;;;;625358;229;26585;-68
2022/08/24 12:57:50;;;;;;;9.77;6.80;;;28.90;78.50;;;;;;620225;230;26556;-67
2022/08/24 13:00:19;;;;;;;5.95;5.35;;;28.60;79.40;;;;;;618566;232;26578;-67
2022/08/24 13:02:46;;;;;;;13.10;6.32;;;28.40;79.40;;;;;;619167;232;26820;-67
2022/08/24 13:05:14;;;;;;;7.85;6.18;;;28.40;80.20;;;;;;618152;232;26550;-67
2022/08/24 13:07:43;;;;;;;7.43;5.80;;;28.80;80.70;;;;;;618796;232;26606;-67
2022/08/24 13:10:13;;;;;;;5.47;4.80;;;29.40;78.20;;;;;;618862;232;26869;-67